sensor_id;sensor_type;location;lat;lon;timestamp;P1;durP1;ratioP1;P2;durP2;ratioP2
20495;SDS011;10406;54.132;17.968;2022-09-27T00:03:19;32.53;;;16.53;;
20495;SDS011;10406;54.132;17.968;2022-09-27T00:08:39;32.20;;;15.77;;
20495;SDS011;10406;54.132;17.968;2022-09-27T00:14:01;36.83;;;16.47;;
20495;SDS011;10406;54.132;17.968;2022-09-27T00:19:24;33.50;;;15.43;;
20495;SDS011;10406;54.132;17.968;2022-09-27T00:24:45;35.10;;;16.20;;
20495;SDS011;10406;54.132;17.968;2022-09-27T00:30:06;30.87;;;16.30;;
20495;SDS011;10406;54.132;17.968;2022-09-27T00:35:30;37.50;;;16.07;;
20495;SDS011;10406;54.132;17.968;2022-09-27T00:40:51;28.10;;;15.30;;
20495;SDS011;10406;54.132;17.968;2022-09-27T00:46:12;29.00;;;15.27;;
20495;SDS011;10406;54.132;17.968;2022-09-27T00:51:39;33.40;;;14.90;;
20495;SDS011;10406;54.132;17.968;2022-09-27T00:57:03;28.80;;;16.07;;
20495;SDS011;10406;54.132;17.968;2022-09-27T01:02:25;29.67;;;15.93;;
20495;SDS011;10406;54.132;17.968;2022-09-27T01:07:48;37.03;;;16.57;;
20495;SDS011;10406;54.132;17.968;2022-09-27T01:13:11;27.43;;;14.57;;
20495;SDS011;10406;54.132;17.968;2022-09-27T01:18:40;30.00;;;15.30;;
20495;SDS011;10406;54.132;17.968;2022-09-27T01:35:39;29.20;;;16.20;;
20495;SDS011;10406;54.132;17.968;2022-09-27T01:41:11;31.70;;;16.23;;
20495;SDS011;10406;54.132;17.968;2022-09-27T01:46:43;28.47;;;15.53;;
20495;SDS011;10406;54.132;17.968;2022-09-27T01:52:07;39.30;;;15.90;;
20495;SDS011;10406;54.132;17.968;2022-09-27T01:57:31;30.23;;;16.67;;
20495;SDS011;10406;54.132;17.968;2022-09-27T02:02:58;31.80;;;16.40;;
20495;SDS011;10406;54.132;17.968;2022-09-27T02:08:28;32.47;;;16.67;;
20495;SDS011;10406;54.132;17.968;2022-09-27T02:13:52;31.43;;;15.53;;
20495;SDS011;10406;54.132;17.968;2022-09-27T02:19:20;30.97;;;16.40;;
20495;SDS011;10406;54.132;17.968;2022-09-27T02:24:52;36.53;;;16.23;;
20495;SDS011;10406;54.132;17.968;2022-09-27T02:30:17;38.13;;;16.47;;
20495;SDS011;10406;54.132;17.968;2022-09-27T02:35:39;36.00;;;16.90;;
20495;SDS011;10406;54.132;17.968;2022-09-27T02:41:01;30.20;;;16.20;;
20495;SDS011;10406;54.132;17.968;2022-09-27T02:46:36;34.30;;;16.27;;
20495;SDS011;10406;54.132;17.968;2022-09-27T02:52:16;32.67;;;15.63;;
20495;SDS011;10406;54.132;17.968;2022-09-27T02:57:50;32.27;;;14.83;;
20495;SDS011;10406;54.132;17.968;2022-09-27T03:03:20;25.90;;;13.43;;
20495;SDS011;10406;54.132;17.968;2022-09-27T03:08:49;32.37;;;17.90;;
20495;SDS011;10406;54.132;17.968;2022-09-27T03:14:10;34.33;;;17.67;;
20495;SDS011;10406;54.132;17.968;2022-09-27T03:19:31;34.37;;;17.50;;
20495;SDS011;10406;54.132;17.968;2022-09-27T03:24:54;31.33;;;15.80;;
20495;SDS011;10406;54.132;17.968;2022-09-27T03:30:17;28.97;;;15.00;;
20495;SDS011;10406;54.132;17.968;2022-09-27T03:35:38;26.60;;;13.37;;
20495;SDS011;10406;54.132;17.968;2022-09-27T03:41:03;25.13;;;13.43;;
20495;SDS011;10406;54.132;17.968;2022-09-27T03:46:24;28.03;;;14.33;;
20495;SDS011;10406;54.132;17.968;2022-09-27T03:51:46;26.73;;;13.37;;
20495;SDS011;10406;54.132;17.968;2022-09-27T03:57:08;28.37;;;15.20;;
20495;SDS011;10406;54.132;17.968;2022-09-27T04:02:29;28.83;;;14.60;;
20495;SDS011;10406;54.132;17.968;2022-09-27T04:07:50;37.27;;;17.70;;
20495;SDS011;10406;54.132;17.968;2022-09-27T04:13:16;33.93;;;17.03;;
20495;SDS011;10406;54.132;17.968;2022-09-27T04:18:37;31.90;;;15.90;;
20495;SDS011;10406;54.132;17.968;2022-09-27T04:23:57;32.90;;;16.03;;
20495;SDS011;10406;54.132;17.968;2022-09-27T04:29:20;33.83;;;17.60;;
20495;SDS011;10406;54.132;17.968;2022-09-27T04:34:40;40.10;;;18.10;;
20495;SDS011;10406;54.132;17.968;2022-09-27T04:40:19;36.83;;;19.27;;
20495;SDS011;10406;54.132;17.968;2022-09-27T04:45:43;40.27;;;21.77;;
20495;SDS011;10406;54.132;17.968;2022-09-27T04:51:04;37.20;;;16.60;;
20495;SDS011;10406;54.132;17.968;2022-09-27T04:56:25;29.33;;;16.00;;
20495;SDS011;10406;54.132;17.968;2022-09-27T05:01:48;30.37;;;16.67;;
20495;SDS011;10406;54.132;17.968;2022-09-27T05:07:09;29.17;;;15.70;;
20495;SDS011;10406;54.132;17.968;2022-09-27T05:12:30;37.90;;;16.17;;
20495;SDS011;10406;54.132;17.968;2022-09-27T05:18:26;32.67;;;16.57;;
20495;SDS011;10406;54.132;17.968;2022-09-27T05:23:47;32.23;;;16.37;;
20495;SDS011;10406;54.132;17.968;2022-09-27T05:29:08;35.77;;;17.17;;
20495;SDS011;10406;54.132;17.968;2022-09-27T05:34:31;41.30;;;19.03;;
20495;SDS011;10406;54.132;17.968;2022-09-27T05:39:52;51.67;;;20.67;;
20495;SDS011;10406;54.132;17.968;2022-09-27T05:45:16;36.83;;;18.17;;
20495;SDS011;10406;54.132;17.968;2022-09-27T05:50:39;33.77;;;19.23;;
20495;SDS011;10406;54.132;17.968;2022-09-27T05:56:00;40.03;;;19.67;;
20495;SDS011;10406;54.132;17.968;2022-09-27T06:01:22;37.70;;;19.60;;
20495;SDS011;10406;54.132;17.968;2022-09-27T06:06:47;38.23;;;20.67;;
20495;SDS011;10406;54.132;17.968;2022-09-27T06:12:08;42.27;;;20.67;;
20495;SDS011;10406;54.132;17.968;2022-09-27T06:17:32;44.80;;;20.40;;
20495;SDS011;10406;54.132;17.968;2022-09-27T06:22:55;39.93;;;20.67;;
20495;SDS011;10406;54.132;17.968;2022-09-27T06:28:24;45.43;;;23.43;;
20495;SDS011;10406;54.132;17.968;2022-09-27T06:33:45;52.43;;;24.50;;
20495;SDS011;10406;54.132;17.968;2022-09-27T06:39:08;42.47;;;25.47;;
20495;SDS011;10406;54.132;17.968;2022-09-27T06:44:29;49.47;;;26.27;;
20495;SDS011;10406;54.132;17.968;2022-09-27T06:49:50;54.43;;;28.43;;
20495;SDS011;10406;54.132;17.968;2022-09-27T06:55:12;54.13;;;29.97;;
20495;SDS011;10406;54.132;17.968;2022-09-27T07:00:34;54.23;;;28.10;;
20495;SDS011;10406;54.132;17.968;2022-09-27T07:05:55;45.10;;;26.33;;
20495;SDS011;10406;54.132;17.968;2022-09-27T07:11:19;48.27;;;25.73;;
20495;SDS011;10406;54.132;17.968;2022-09-27T07:16:44;39.33;;;23.10;;
20495;SDS011;10406;54.132;17.968;2022-09-27T07:22:05;41.07;;;23.13;;
20495;SDS011;10406;54.132;17.968;2022-09-27T07:27:29;43.87;;;23.97;;
20495;SDS011;10406;54.132;17.968;2022-09-27T07:32:55;41.17;;;23.67;;
20495;SDS011;10406;54.132;17.968;2022-09-27T07:39:08;44.40;;;22.77;;
20495;SDS011;10406;54.132;17.968;2022-09-27T07:50:41;38.37;;;20.50;;
20495;SDS011;10406;54.132;17.968;2022-09-27T07:56:33;36.87;;;18.90;;
20495;SDS011;10406;54.132;17.968;2022-09-27T08:01:56;30.97;;;17.00;;
20495;SDS011;10406;54.132;17.968;2022-09-27T08:07:17;32.50;;;18.73;;
20495;SDS011;10406;54.132;17.968;2022-09-27T08:12:41;30.63;;;17.30;;
20495;SDS011;10406;54.132;17.968;2022-09-27T08:18:12;30.77;;;16.10;;
20495;SDS011;10406;54.132;17.968;2022-09-27T08:23:37;29.33;;;14.87;;
20495;SDS011;10406;54.132;17.968;2022-09-27T08:29:07;33.13;;;17.73;;
20495;SDS011;10406;54.132;17.968;2022-09-27T08:34:35;23.50;;;13.43;;
20495;SDS011;10406;54.132;17.968;2022-09-27T08:39:59;24.63;;;12.83;;
20495;SDS011;10406;54.132;17.968;2022-09-27T08:45:23;27.70;;;14.67;;
20495;SDS011;10406;54.132;17.968;2022-09-27T08:51:03;29.53;;;13.93;;
20495;SDS011;10406;54.132;17.968;2022-09-27T08:56:39;27.27;;;13.97;;
20495;SDS011;10406;54.132;17.968;2022-09-27T09:02:15;29.83;;;14.03;;
20495;SDS011;10406;54.132;17.968;2022-09-27T09:07:45;30.63;;;15.00;;
20495;SDS011;10406;54.132;17.968;2022-09-27T09:13:18;24.90;;;12.97;;
20495;SDS011;10406;54.132;17.968;2022-09-27T09:19:03;28.27;;;12.80;;
20495;SDS011;10406;54.132;17.968;2022-09-27T09:24:49;24.67;;;10.83;;
20495;SDS011;10406;54.132;17.968;2022-09-27T09:30:38;24.00;;;11.63;;
20495;SDS011;10406;54.132;17.968;2022-09-27T09:36:05;28.53;;;12.53;;
20495;SDS011;10406;54.132;17.968;2022-09-27T09:41:36;23.40;;;12.60;;
20495;SDS011;10406;54.132;17.968;2022-09-27T09:47:01;33.60;;;11.93;;
20495;SDS011;10406;54.132;17.968;2022-09-27T09:52:37;26.60;;;13.27;;
20495;SDS011;10406;54.132;17.968;2022-09-27T09:58:12;25.47;;;13.70;;
20495;SDS011;10406;54.132;17.968;2022-09-27T10:03:43;27.00;;;12.97;;
20495;SDS011;10406;54.132;17.968;2022-09-27T10:09:11;25.43;;;14.30;;
20495;SDS011;10406;54.132;17.968;2022-09-27T10:14:39;26.10;;;13.07;;
20495;SDS011;10406;54.132;17.968;2022-09-27T10:20:04;25.83;;;13.63;;
20495;SDS011;10406;54.132;17.968;2022-09-27T10:25:31;27.60;;;15.07;;
20495;SDS011;10406;54.132;17.968;2022-09-27T10:31:18;27.50;;;13.87;;
20495;SDS011;10406;54.132;17.968;2022-09-27T10:36:42;26.60;;;13.80;;
20495;SDS011;10406;54.132;17.968;2022-09-27T10:42:21;25.77;;;12.30;;
20495;SDS011;10406;54.132;17.968;2022-09-27T10:48:17;28.83;;;14.97;;
20495;SDS011;10406;54.132;17.968;2022-09-27T10:53:43;37.43;;;17.87;;
20495;SDS011;10406;54.132;17.968;2022-09-27T10:59:13;34.03;;;15.50;;
20495;SDS011;10406;54.132;17.968;2022-09-27T11:04:55;28.37;;;13.10;;
20495;SDS011;10406;54.132;17.968;2022-09-27T11:10:23;32.00;;;13.93;;
20495;SDS011;10406;54.132;17.968;2022-09-27T11:16:00;23.20;;;10.83;;
20495;SDS011;10406;54.132;17.968;2022-09-27T11:21:39;16.77;;;8.90;;
20495;SDS011;10406;54.132;17.968;2022-09-27T11:27:13;17.50;;;8.87;;
20495;SDS011;10406;54.132;17.968;2022-09-27T11:32:52;16.07;;;8.67;;
20495;SDS011;10406;54.132;17.968;2022-09-27T11:38:35;16.90;;;9.20;;
20495;SDS011;10406;54.132;17.968;2022-09-27T11:50:14;19.47;;;9.63;;
20495;SDS011;10406;54.132;17.968;2022-09-27T11:56:06;19.13;;;9.73;;
20495;SDS011;10406;54.132;17.968;2022-09-27T12:01:53;19.57;;;9.67;;
20495;SDS011;10406;54.132;17.968;2022-09-27T12:07:20;19.10;;;9.67;;
20495;SDS011;10406;54.132;17.968;2022-09-27T12:12:54;22.87;;;9.67;;
20495;SDS011;10406;54.132;17.968;2022-09-27T12:18:23;18.53;;;10.17;;
20495;SDS011;10406;54.132;17.968;2022-09-27T12:24:08;22.07;;;10.60;;
20495;SDS011;10406;54.132;17.968;2022-09-27T12:30:04;21.63;;;10.83;;
20495;SDS011;10406;54.132;17.968;2022-09-27T12:35:28;25.67;;;10.27;;
20495;SDS011;10406;54.132;17.968;2022-09-27T12:40:55;26.23;;;10.33;;
20495;SDS011;10406;54.132;17.968;2022-09-27T12:46:32;20.17;;;10.67;;
20495;SDS011;10406;54.132;17.968;2022-09-27T12:52:08;21.13;;;10.47;;
20495;SDS011;10406;54.132;17.968;2022-09-27T12:58:06;24.77;;;11.30;;
20495;SDS011;10406;54.132;17.968;2022-09-27T13:10:47;39.30;;;17.87;;
20495;SDS011;10406;54.132;17.968;2022-09-27T13:17:04;25.23;;;12.23;;
20495;SDS011;10406;54.132;17.968;2022-09-27T13:23:47;23.90;;;11.40;;
20495;SDS011;10406;54.132;17.968;2022-09-27T13:29:31;27.50;;;14.53;;
20495;SDS011;10406;54.132;17.968;2022-09-27T13:41:18;29.03;;;15.03;;
20495;SDS011;10406;54.132;17.968;2022-09-27T13:46:45;26.63;;;15.23;;
20495;SDS011;10406;54.132;17.968;2022-09-27T13:52:31;26.17;;;14.43;;
20495;SDS011;10406;54.132;17.968;2022-09-27T13:58:03;28.03;;;15.00;;
20495;SDS011;10406;54.132;17.968;2022-09-27T14:03:47;26.40;;;14.57;;
20495;SDS011;10406;54.132;17.968;2022-09-27T14:09:37;29.60;;;14.93;;
20495;SDS011;10406;54.132;17.968;2022-09-27T14:15:16;28.80;;;14.87;;
20495;SDS011;10406;54.132;17.968;2022-09-27T14:20:52;30.63;;;16.07;;
20495;SDS011;10406;54.132;17.968;2022-09-27T14:26:44;27.80;;;15.77;;
20495;SDS011;10406;54.132;17.968;2022-09-27T14:32:45;30.50;;;17.43;;
20495;SDS011;10406;54.132;17.968;2022-09-27T14:38:30;29.93;;;15.13;;
20495;SDS011;10406;54.132;17.968;2022-09-27T14:44:34;29.27;;;15.33;;
20495;SDS011;10406;54.132;17.968;2022-09-27T14:50:18;32.30;;;17.47;;
20495;SDS011;10406;54.132;17.968;2022-09-27T14:56:10;37.00;;;20.60;;
20495;SDS011;10406;54.132;17.968;2022-09-27T15:01:54;36.60;;;19.83;;
20495;SDS011;10406;54.132;17.968;2022-09-27T15:08:06;29.50;;;16.77;;
20495;SDS011;10406;54.132;17.968;2022-09-27T15:13:41;28.87;;;16.17;;
20495;SDS011;10406;54.132;17.968;2022-09-27T15:19:05;34.03;;;17.93;;
20495;SDS011;10406;54.132;17.968;2022-09-27T15:25:16;31.83;;;17.77;;
20495;SDS011;10406;54.132;17.968;2022-09-27T15:30:46;35.03;;;17.73;;
20495;SDS011;10406;54.132;17.968;2022-09-27T15:36:12;30.13;;;17.60;;
20495;SDS011;10406;54.132;17.968;2022-09-27T15:41:58;32.37;;;17.53;;
20495;SDS011;10406;54.132;17.968;2022-09-27T15:47:37;34.90;;;19.53;;
20495;SDS011;10406;54.132;17.968;2022-09-27T15:53:38;39.53;;;18.73;;
20495;SDS011;10406;54.132;17.968;2022-09-27T15:59:08;38.23;;;20.73;;
20495;SDS011;10406;54.132;17.968;2022-09-27T16:04:37;40.00;;;21.50;;
20495;SDS011;10406;54.132;17.968;2022-09-27T16:15:53;45.93;;;23.40;;
20495;SDS011;10406;54.132;17.968;2022-09-27T16:21:17;48.20;;;24.43;;
20495;SDS011;10406;54.132;17.968;2022-09-27T16:26:38;47.30;;;25.10;;
20495;SDS011;10406;54.132;17.968;2022-09-27T16:32:03;50.67;;;28.13;;
20495;SDS011;10406;54.132;17.968;2022-09-27T16:37:26;48.27;;;27.00;;
20495;SDS011;10406;54.132;17.968;2022-09-27T16:42:49;45.90;;;26.83;;
20495;SDS011;10406;54.132;17.968;2022-09-27T16:48:12;51.20;;;27.23;;
20495;SDS011;10406;54.132;17.968;2022-09-27T16:53:43;52.60;;;28.30;;
20495;SDS011;10406;54.132;17.968;2022-09-27T16:59:14;52.10;;;27.43;;
20495;SDS011;10406;54.132;17.968;2022-09-27T17:04:36;45.57;;;24.80;;
20495;SDS011;10406;54.132;17.968;2022-09-27T17:09:57;44.37;;;25.17;;
20495;SDS011;10406;54.132;17.968;2022-09-27T17:15:18;44.40;;;24.70;;
20495;SDS011;10406;54.132;17.968;2022-09-27T17:20:41;48.03;;;26.27;;
20495;SDS011;10406;54.132;17.968;2022-09-27T17:26:04;45.83;;;24.83;;
20495;SDS011;10406;54.132;17.968;2022-09-27T17:31:38;47.87;;;26.70;;
20495;SDS011;10406;54.132;17.968;2022-09-27T17:37:03;46.77;;;25.60;;
20495;SDS011;10406;54.132;17.968;2022-09-27T17:42:24;47.07;;;26.03;;
20495;SDS011;10406;54.132;17.968;2022-09-27T17:47:47;46.80;;;26.83;;
20495;SDS011;10406;54.132;17.968;2022-09-27T17:53:23;48.23;;;27.97;;
20495;SDS011;10406;54.132;17.968;2022-09-27T17:58:44;51.23;;;29.20;;
20495;SDS011;10406;54.132;17.968;2022-09-27T18:04:07;51.03;;;29.43;;
20495;SDS011;10406;54.132;17.968;2022-09-27T18:09:31;52.83;;;28.30;;
20495;SDS011;10406;54.132;17.968;2022-09-27T18:14:52;52.50;;;26.67;;
20495;SDS011;10406;54.132;17.968;2022-09-27T18:20:16;47.07;;;26.07;;
20495;SDS011;10406;54.132;17.968;2022-09-27T18:25:39;49.83;;;27.77;;
20495;SDS011;10406;54.132;17.968;2022-09-27T18:31:00;47.10;;;26.67;;
20495;SDS011;10406;54.132;17.968;2022-09-27T18:36:23;45.53;;;27.67;;
20495;SDS011;10406;54.132;17.968;2022-09-27T18:41:47;44.63;;;26.27;;
20495;SDS011;10406;54.132;17.968;2022-09-27T18:47:08;52.13;;;29.83;;
20495;SDS011;10406;54.132;17.968;2022-09-27T18:52:29;48.50;;;27.07;;
20495;SDS011;10406;54.132;17.968;2022-09-27T18:57:52;46.67;;;25.63;;
20495;SDS011;10406;54.132;17.968;2022-09-27T19:03:13;47.17;;;24.37;;
20495;SDS011;10406;54.132;17.968;2022-09-27T19:08:35;34.07;;;18.87;;
20495;SDS011;10406;54.132;17.968;2022-09-27T19:14:01;32.63;;;18.90;;
20495;SDS011;10406;54.132;17.968;2022-09-27T19:19:22;33.70;;;18.47;;
20495;SDS011;10406;54.132;17.968;2022-09-27T19:24:48;30.03;;;17.40;;
20495;SDS011;10406;54.132;17.968;2022-09-27T19:30:11;31.50;;;16.67;;
20495;SDS011;10406;54.132;17.968;2022-09-27T19:35:32;31.23;;;16.50;;
20495;SDS011;10406;54.132;17.968;2022-09-27T19:40:55;34.37;;;19.13;;
20495;SDS011;10406;54.132;17.968;2022-09-27T19:46:18;30.93;;;17.90;;
20495;SDS011;10406;54.132;17.968;2022-09-27T19:51:39;42.07;;;18.50;;
20495;SDS011;10406;54.132;17.968;2022-09-27T19:57:01;29.47;;;14.00;;
20495;SDS011;10406;54.132;17.968;2022-09-27T20:02:28;27.53;;;13.37;;
20495;SDS011;10406;54.132;17.968;2022-09-27T20:07:53;27.13;;;13.27;;
20495;SDS011;10406;54.132;17.968;2022-09-27T20:13:14;21.23;;;10.50;;
20495;SDS011;10406;54.132;17.968;2022-09-27T20:18:38;18.87;;;10.07;;
20495;SDS011;10406;54.132;17.968;2022-09-27T20:24:01;21.80;;;9.87;;
20495;SDS011;10406;54.132;17.968;2022-09-27T20:29:24;25.73;;;12.63;;
20495;SDS011;10406;54.132;17.968;2022-09-27T20:34:47;25.47;;;11.57;;
20495;SDS011;10406;54.132;17.968;2022-09-27T20:40:09;23.27;;;11.50;;
20495;SDS011;10406;54.132;17.968;2022-09-27T20:45:30;19.63;;;10.00;;
20495;SDS011;10406;54.132;17.968;2022-09-27T20:50:54;16.33;;;8.07;;
20495;SDS011;10406;54.132;17.968;2022-09-27T20:56:20;33.57;;;15.13;;
20495;SDS011;10406;54.132;17.968;2022-09-27T21:01:50;18.90;;;10.10;;
20495;SDS011;10406;54.132;17.968;2022-09-27T21:07:20;20.33;;;10.03;;
20495;SDS011;10406;54.132;17.968;2022-09-27T21:12:41;25.60;;;8.60;;
20495;SDS011;10406;54.132;17.968;2022-09-27T21:18:03;14.30;;;6.97;;
20495;SDS011;10406;54.132;17.968;2022-09-27T21:23:25;13.80;;;7.57;;
20495;SDS011;10406;54.132;17.968;2022-09-27T21:28:48;11.47;;;6.57;;
20495;SDS011;10406;54.132;17.968;2022-09-27T21:34:12;16.73;;;5.93;;
20495;SDS011;10406;54.132;17.968;2022-09-27T21:39:40;8.80;;;5.70;;
20495;SDS011;10406;54.132;17.968;2022-09-27T21:45:01;8.13;;;5.60;;
20495;SDS011;10406;54.132;17.968;2022-09-27T21:50:22;9.53;;;5.67;;
20495;SDS011;10406;54.132;17.968;2022-09-27T21:55:53;11.57;;;5.67;;
20495;SDS011;10406;54.132;17.968;2022-09-27T22:01:17;13.80;;;6.60;;
20495;SDS011;10406;54.132;17.968;2022-09-27T22:06:40;13.40;;;6.03;;
20495;SDS011;10406;54.132;17.968;2022-09-27T22:12:02;14.93;;;6.63;;
20495;SDS011;10406;54.132;17.968;2022-09-27T22:17:24;8.37;;;4.90;;
20495;SDS011;10406;54.132;17.968;2022-09-27T22:22:54;8.63;;;4.47;;
20495;SDS011;10406;54.132;17.968;2022-09-27T22:28:16;8.47;;;4.80;;
20495;SDS011;10406;54.132;17.968;2022-09-27T22:33:37;11.67;;;5.83;;
20495;SDS011;10406;54.132;17.968;2022-09-27T22:38:59;10.10;;;5.27;;
20495;SDS011;10406;54.132;17.968;2022-09-27T22:44:24;8.43;;;5.07;;
20495;SDS011;10406;54.132;17.968;2022-09-27T22:49:45;15.60;;;7.07;;
20495;SDS011;10406;54.132;17.968;2022-09-27T22:55:07;6.33;;;4.80;;
20495;SDS011;10406;54.132;17.968;2022-09-27T23:00:32;5.27;;;4.33;;
20495;SDS011;10406;54.132;17.968;2022-09-27T23:05:59;8.47;;;5.80;;
20495;SDS011;10406;54.132;17.968;2022-09-27T23:11:21;14.37;;;5.77;;
20495;SDS011;10406;54.132;17.968;2022-09-27T23:16:44;8.53;;;5.57;;
20495;SDS011;10406;54.132;17.968;2022-09-27T23:22:05;10.73;;;6.47;;
20495;SDS011;10406;54.132;17.968;2022-09-27T23:27:26;9.93;;;5.87;;
20495;SDS011;10406;54.132;17.968;2022-09-27T23:33:04;18.97;;;5.93;;
20495;SDS011;10406;54.132;17.968;2022-09-27T23:38:27;8.70;;;5.03;;
20495;SDS011;10406;54.132;17.968;2022-09-27T23:43:49;5.70;;;4.70;;
20495;SDS011;10406;54.132;17.968;2022-09-27T23:49:12;9.63;;;5.37;;
20495;SDS011;10406;54.132;17.968;2022-09-27T23:54:34;5.50;;;4.37;;
20495;SDS011;10406;54.132;17.968;2022-09-27T23:59:55;7.60;;;4.80;;
